sensor_id;sensor_type;location;lat;lon;timestamp;temperature;humidity
10538;DHT22;5317;49.048;8.468;2024-03-25T00:01:36;10.30;78.30
10538;DHT22;5317;49.048;8.468;2024-03-25T00:04:02;10.40;78.30
10538;DHT22;5317;49.048;8.468;2024-03-25T00:06:29;10.40;78.30
10538;DHT22;5317;49.048;8.468;2024-03-25T00:08:59;10.40;78.30
10538;DHT22;5317;49.048;8.468;2024-03-25T00:11:25;10.30;77.90
10538;DHT22;5317;49.048;8.468;2024-03-25T00:13:51;10.30;78.40
10538;DHT22;5317;49.048;8.468;2024-03-25T00:16:18;10.20;78.40
10538;DHT22;5317;49.048;8.468;2024-03-25T00:18:45;10.20;78.60
10538;DHT22;5317;49.048;8.468;2024-03-25T00:21:13;10.20;78.60
10538;DHT22;5317;49.048;8.468;2024-03-25T00:23:39;10.30;78.50
10538;DHT22;5317;49.048;8.468;2024-03-25T00:26:06;10.30;78.30
10538;DHT22;5317;49.048;8.468;2024-03-25T00:28:32;10.40;78.30
10538;DHT22;5317;49.048;8.468;2024-03-25T00:30:59;10.40;77.80
10538;DHT22;5317;49.048;8.468;2024-03-25T00:33:25;10.40;77.90
10538;DHT22;5317;49.048;8.468;2024-03-25T00:35:53;10.40;77.90
10538;DHT22;5317;49.048;8.468;2024-03-25T00:38:19;10.40;77.90
10538;DHT22;5317;49.048;8.468;2024-03-25T00:40:46;10.50;78.00
10538;DHT22;5317;49.048;8.468;2024-03-25T00:43:12;10.40;77.80
10538;DHT22;5317;49.048;8.468;2024-03-25T00:45:38;10.30;78.00
10538;DHT22;5317;49.048;8.468;2024-03-25T00:48:05;10.20;78.20
10538;DHT22;5317;49.048;8.468;2024-03-25T00:50:32;10.20;78.50
10538;DHT22;5317;49.048;8.468;2024-03-25T00:52:59;10.20;78.60
10538;DHT22;5317;49.048;8.468;2024-03-25T00:55:26;10.20;78.70
10538;DHT22;5317;49.048;8.468;2024-03-25T00:57:52;10.20;78.60
10538;DHT22;5317;49.048;8.468;2024-03-25T01:00:19;10.20;78.70
10538;DHT22;5317;49.048;8.468;2024-03-25T01:02:45;10.30;78.70
10538;DHT22;5317;49.048;8.468;2024-03-25T01:05:12;10.30;78.70
10538;DHT22;5317;49.048;8.468;2024-03-25T01:07:38;10.30;78.30
10538;DHT22;5317;49.048;8.468;2024-03-25T01:10:07;10.30;78.30
10538;DHT22;5317;49.048;8.468;2024-03-25T01:12:33;10.30;78.40
10538;DHT22;5317;49.048;8.468;2024-03-25T01:15:00;10.30;79.30
10538;DHT22;5317;49.048;8.468;2024-03-25T01:17:27;10.30;78.50
10538;DHT22;5317;49.048;8.468;2024-03-25T01:19:54;10.20;78.60
10538;DHT22;5317;49.048;8.468;2024-03-25T01:22:20;10.20;78.80
10538;DHT22;5317;49.048;8.468;2024-03-25T01:24:47;10.10;79.10
10538;DHT22;5317;49.048;8.468;2024-03-25T01:27:14;10.10;79.20
10538;DHT22;5317;49.048;8.468;2024-03-25T01:29:41;10.10;79.20
10538;DHT22;5317;49.048;8.468;2024-03-25T01:32:07;10.10;79.20
10538;DHT22;5317;49.048;8.468;2024-03-25T01:34:34;10.10;79.20
10538;DHT22;5317;49.048;8.468;2024-03-25T01:37:00;10.10;79.30
10538;DHT22;5317;49.048;8.468;2024-03-25T01:39:27;10.20;79.00
10538;DHT22;5317;49.048;8.468;2024-03-25T01:41:53;10.10;79.10
10538;DHT22;5317;49.048;8.468;2024-03-25T01:44:21;10.10;79.10
10538;DHT22;5317;49.048;8.468;2024-03-25T01:46:47;10.20;79.00
10538;DHT22;5317;49.048;8.468;2024-03-25T01:49:14;10.10;79.20
10538;DHT22;5317;49.048;8.468;2024-03-25T01:51:40;10.10;79.20
10538;DHT22;5317;49.048;8.468;2024-03-25T01:54:08;10.10;79.30
10538;DHT22;5317;49.048;8.468;2024-03-25T01:56:35;10.20;79.30
10538;DHT22;5317;49.048;8.468;2024-03-25T01:59:03;10.20;79.10
10538;DHT22;5317;49.048;8.468;2024-03-25T02:01:31;10.20;79.30
10538;DHT22;5317;49.048;8.468;2024-03-25T02:03:58;10.20;79.30
10538;DHT22;5317;49.048;8.468;2024-03-25T02:06:27;10.20;79.30
10538;DHT22;5317;49.048;8.468;2024-03-25T02:08:55;10.20;79.30
10538;DHT22;5317;49.048;8.468;2024-03-25T02:11:22;10.20;79.10
10538;DHT22;5317;49.048;8.468;2024-03-25T02:13:50;10.10;79.20
10538;DHT22;5317;49.048;8.468;2024-03-25T02:16:16;10.10;79.30
10538;DHT22;5317;49.048;8.468;2024-03-25T02:18:45;10.00;80.10
10538;DHT22;5317;49.048;8.468;2024-03-25T02:21:11;10.00;79.80
10538;DHT22;5317;49.048;8.468;2024-03-25T02:23:39;10.00;79.80
10538;DHT22;5317;49.048;8.468;2024-03-25T02:26:08;10.00;79.70
10538;DHT22;5317;49.048;8.468;2024-03-25T02:28:35;10.00;79.60
10538;DHT22;5317;49.048;8.468;2024-03-25T02:31:01;10.10;79.50
10538;DHT22;5317;49.048;8.468;2024-03-25T02:33:28;10.10;79.50
10538;DHT22;5317;49.048;8.468;2024-03-25T02:35:54;10.10;79.20
10538;DHT22;5317;49.048;8.468;2024-03-25T02:38:21;10.10;79.50
10538;DHT22;5317;49.048;8.468;2024-03-25T02:40:47;10.10;79.50
10538;DHT22;5317;49.048;8.468;2024-03-25T02:43:15;10.20;79.30
10538;DHT22;5317;49.048;8.468;2024-03-25T02:45:41;10.30;79.20
10538;DHT22;5317;49.048;8.468;2024-03-25T02:48:08;10.20;78.90
10538;DHT22;5317;49.048;8.468;2024-03-25T02:50:34;10.20;79.10
10538;DHT22;5317;49.048;8.468;2024-03-25T02:53:01;10.20;78.90
10538;DHT22;5317;49.048;8.468;2024-03-25T02:55:27;10.30;78.90
10538;DHT22;5317;49.048;8.468;2024-03-25T02:57:53;10.30;78.70
10538;DHT22;5317;49.048;8.468;2024-03-25T03:00:21;10.40;78.70
10538;DHT22;5317;49.048;8.468;2024-03-25T03:02:47;10.40;78.50
10538;DHT22;5317;49.048;8.468;2024-03-25T03:05:13;10.50;78.40
10538;DHT22;5317;49.048;8.468;2024-03-25T03:07:40;10.60;78.00
10538;DHT22;5317;49.048;8.468;2024-03-25T03:10:07;10.50;77.70
10538;DHT22;5317;49.048;8.468;2024-03-25T03:12:34;10.50;78.00
10538;DHT22;5317;49.048;8.468;2024-03-25T03:14:59;10.50;78.00
10538;DHT22;5317;49.048;8.468;2024-03-25T03:17:28;10.60;78.00
10538;DHT22;5317;49.048;8.468;2024-03-25T03:19:53;10.50;77.80
10538;DHT22;5317;49.048;8.468;2024-03-25T03:22:20;10.50;77.90
10538;DHT22;5317;49.048;8.468;2024-03-25T03:24:46;10.60;77.90
10538;DHT22;5317;49.048;8.468;2024-03-25T03:27:13;10.60;78.40
10538;DHT22;5317;49.048;8.468;2024-03-25T03:29:39;10.50;77.50
10538;DHT22;5317;49.048;8.468;2024-03-25T03:32:06;10.40;78.60
10538;DHT22;5317;49.048;8.468;2024-03-25T03:34:33;10.30;77.70
10538;DHT22;5317;49.048;8.468;2024-03-25T03:37:00;10.20;78.10
10538;DHT22;5317;49.048;8.468;2024-03-25T03:39:26;10.20;78.20
10538;DHT22;5317;49.048;8.468;2024-03-25T03:41:52;10.10;78.30
10538;DHT22;5317;49.048;8.468;2024-03-25T03:44:18;10.10;78.20
10538;DHT22;5317;49.048;8.468;2024-03-25T03:46:45;10.10;78.40
10538;DHT22;5317;49.048;8.468;2024-03-25T03:49:11;10.00;78.60
10538;DHT22;5317;49.048;8.468;2024-03-25T03:51:39;10.10;79.10
10538;DHT22;5317;49.048;8.468;2024-03-25T03:54:05;10.10;78.30
10538;DHT22;5317;49.048;8.468;2024-03-25T03:56:32;10.10;78.40
10538;DHT22;5317;49.048;8.468;2024-03-25T03:58:58;10.10;78.30
10538;DHT22;5317;49.048;8.468;2024-03-25T04:01:24;10.20;78.30
10538;DHT22;5317;49.048;8.468;2024-03-25T04:03:50;10.10;78.10
10538;DHT22;5317;49.048;8.468;2024-03-25T04:06:17;10.10;78.10
10538;DHT22;5317;49.048;8.468;2024-03-25T04:08:44;10.10;78.30
10538;DHT22;5317;49.048;8.468;2024-03-25T04:11:11;10.10;78.30
10538;DHT22;5317;49.048;8.468;2024-03-25T04:13:37;10.00;78.30
10538;DHT22;5317;49.048;8.468;2024-03-25T04:16:05;10.10;78.70
10538;DHT22;5317;49.048;8.468;2024-03-25T04:18:32;10.10;78.40
10538;DHT22;5317;49.048;8.468;2024-03-25T04:20:59;10.10;78.20
10538;DHT22;5317;49.048;8.468;2024-03-25T04:23:25;10.10;78.30
10538;DHT22;5317;49.048;8.468;2024-03-25T04:25:53;10.20;78.20
10538;DHT22;5317;49.048;8.468;2024-03-25T04:28:20;10.20;77.90
10538;DHT22;5317;49.048;8.468;2024-03-25T04:30:51;10.10;78.00
10538;DHT22;5317;49.048;8.468;2024-03-25T04:33:17;10.10;78.30
10538;DHT22;5317;49.048;8.468;2024-03-25T04:35:45;10.00;78.50
10538;DHT22;5317;49.048;8.468;2024-03-25T04:38:11;9.90;79.80
10538;DHT22;5317;49.048;8.468;2024-03-25T04:40:37;9.90;80.10
10538;DHT22;5317;49.048;8.468;2024-03-25T04:43:04;9.90;80.20
10538;DHT22;5317;49.048;8.468;2024-03-25T04:45:30;9.90;80.00
10538;DHT22;5317;49.048;8.468;2024-03-25T04:47:56;9.80;80.10
10538;DHT22;5317;49.048;8.468;2024-03-25T04:50:22;9.80;80.10
10538;DHT22;5317;49.048;8.468;2024-03-25T04:52:48;9.70;80.20
10538;DHT22;5317;49.048;8.468;2024-03-25T04:55:14;9.80;80.50
10538;DHT22;5317;49.048;8.468;2024-03-25T04:57:40;9.80;80.50
10538;DHT22;5317;49.048;8.468;2024-03-25T05:00:08;9.90;80.20
10538;DHT22;5317;49.048;8.468;2024-03-25T05:02:36;9.90;80.20
10538;DHT22;5317;49.048;8.468;2024-03-25T05:05:02;9.90;80.00
10538;DHT22;5317;49.048;8.468;2024-03-25T05:07:28;10.00;78.80
10538;DHT22;5317;49.048;8.468;2024-03-25T05:09:54;10.10;78.60
10538;DHT22;5317;49.048;8.468;2024-03-25T05:12:20;10.10;78.50
10538;DHT22;5317;49.048;8.468;2024-03-25T05:14:46;10.00;78.50
10538;DHT22;5317;49.048;8.468;2024-03-25T05:17:13;9.90;79.80
10538;DHT22;5317;49.048;8.468;2024-03-25T05:19:39;9.90;80.20
10538;DHT22;5317;49.048;8.468;2024-03-25T05:22:05;9.90;80.20
10538;DHT22;5317;49.048;8.468;2024-03-25T05:24:31;9.90;80.20
10538;DHT22;5317;49.048;8.468;2024-03-25T05:26:56;9.80;80.10
10538;DHT22;5317;49.048;8.468;2024-03-25T05:29:22;9.80;80.20
10538;DHT22;5317;49.048;8.468;2024-03-25T05:31:56;9.70;80.70
10538;DHT22;5317;49.048;8.468;2024-03-25T05:34:25;9.70;80.80
10538;DHT22;5317;49.048;8.468;2024-03-25T05:36:51;9.60;80.80
10538;DHT22;5317;49.048;8.468;2024-03-25T05:39:17;9.60;80.80
10538;DHT22;5317;49.048;8.468;2024-03-25T05:41:43;9.60;80.80
10538;DHT22;5317;49.048;8.468;2024-03-25T05:44:09;9.70;81.10
10538;DHT22;5317;49.048;8.468;2024-03-25T05:46:35;9.80;80.90
10538;DHT22;5317;49.048;8.468;2024-03-25T05:49:02;9.90;80.60
10538;DHT22;5317;49.048;8.468;2024-03-25T05:51:29;10.00;79.10
10538;DHT22;5317;49.048;8.468;2024-03-25T05:53:55;10.00;79.00
10538;DHT22;5317;49.048;8.468;2024-03-25T05:56:21;10.10;78.70
10538;DHT22;5317;49.048;8.468;2024-03-25T05:58:47;10.20;78.60
10538;DHT22;5317;49.048;8.468;2024-03-25T06:01:13;10.30;78.50
10538;DHT22;5317;49.048;8.468;2024-03-25T06:03:39;10.30;78.30
10538;DHT22;5317;49.048;8.468;2024-03-25T06:06:05;10.40;78.10
10538;DHT22;5317;49.048;8.468;2024-03-25T06:08:32;10.40;77.90
10538;DHT22;5317;49.048;8.468;2024-03-25T06:11:01;10.40;77.90
10538;DHT22;5317;49.048;8.468;2024-03-25T06:13:27;10.40;77.90
10538;DHT22;5317;49.048;8.468;2024-03-25T06:15:53;10.30;77.70
10538;DHT22;5317;49.048;8.468;2024-03-25T06:18:28;10.20;78.10
10538;DHT22;5317;49.048;8.468;2024-03-25T06:20:54;10.20;78.50
10538;DHT22;5317;49.048;8.468;2024-03-25T06:23:23;10.30;78.60
10538;DHT22;5317;49.048;8.468;2024-03-25T06:25:52;10.30;78.30
10538;DHT22;5317;49.048;8.468;2024-03-25T06:28:18;10.40;78.10
10538;DHT22;5317;49.048;8.468;2024-03-25T06:30:45;10.40;78.10
10538;DHT22;5317;49.048;8.468;2024-03-25T06:33:29;10.40;78.00
10538;DHT22;5317;49.048;8.468;2024-03-25T06:36:14;10.40;78.10
10538;DHT22;5317;49.048;8.468;2024-03-25T06:38:40;10.30;78.00
10538;DHT22;5317;49.048;8.468;2024-03-25T06:41:07;10.20;78.10
10538;DHT22;5317;49.048;8.468;2024-03-25T06:43:33;10.20;78.40
10538;DHT22;5317;49.048;8.468;2024-03-25T06:46:00;10.20;78.40
10538;DHT22;5317;49.048;8.468;2024-03-25T06:48:26;10.20;78.20
10538;DHT22;5317;49.048;8.468;2024-03-25T06:50:53;10.20;78.30
10538;DHT22;5317;49.048;8.468;2024-03-25T06:53:18;10.20;78.60
10538;DHT22;5317;49.048;8.468;2024-03-25T06:55:51;10.20;79.30
10538;DHT22;5317;49.048;8.468;2024-03-25T06:58:20;10.30;78.20
10538;DHT22;5317;49.048;8.468;2024-03-25T07:00:46;10.30;78.50
10538;DHT22;5317;49.048;8.468;2024-03-25T07:03:11;10.40;77.90
10538;DHT22;5317;49.048;8.468;2024-03-25T07:05:37;10.50;78.10
10538;DHT22;5317;49.048;8.468;2024-03-25T07:08:04;10.50;77.90
10538;DHT22;5317;49.048;8.468;2024-03-25T07:10:30;10.60;77.60
10538;DHT22;5317;49.048;8.468;2024-03-25T07:12:56;10.70;77.80
10538;DHT22;5317;49.048;8.468;2024-03-25T07:15:23;10.80;77.10
10538;DHT22;5317;49.048;8.468;2024-03-25T07:17:49;10.80;77.40
10538;DHT22;5317;49.048;8.468;2024-03-25T07:20:15;10.80;77.10
10538;DHT22;5317;49.048;8.468;2024-03-25T07:22:41;10.90;76.90
10538;DHT22;5317;49.048;8.468;2024-03-25T07:25:07;11.00;76.90
10538;DHT22;5317;49.048;8.468;2024-03-25T07:27:33;11.10;76.50
10538;DHT22;5317;49.048;8.468;2024-03-25T07:29:59;11.10;76.10
10538;DHT22;5317;49.048;8.468;2024-03-25T07:32:26;11.10;76.50
10538;DHT22;5317;49.048;8.468;2024-03-25T07:34:52;11.10;75.60
10538;DHT22;5317;49.048;8.468;2024-03-25T07:37:18;11.20;75.70
10538;DHT22;5317;49.048;8.468;2024-03-25T07:39:46;11.20;75.70
10538;DHT22;5317;49.048;8.468;2024-03-25T07:42:12;11.20;75.60
10538;DHT22;5317;49.048;8.468;2024-03-25T07:44:38;11.30;75.30
10538;DHT22;5317;49.048;8.468;2024-03-25T07:47:04;11.40;75.40
10538;DHT22;5317;49.048;8.468;2024-03-25T07:49:32;11.40;75.60
10538;DHT22;5317;49.048;8.468;2024-03-25T07:51:58;11.60;75.40
10538;DHT22;5317;49.048;8.468;2024-03-25T07:54:24;11.70;74.80
10538;DHT22;5317;49.048;8.468;2024-03-25T07:56:50;11.80;74.30
10538;DHT22;5317;49.048;8.468;2024-03-25T07:59:16;11.80;73.50
10538;DHT22;5317;49.048;8.468;2024-03-25T08:01:42;11.80;73.50
10538;DHT22;5317;49.048;8.468;2024-03-25T08:04:08;12.00;74.50
10538;DHT22;5317;49.048;8.468;2024-03-25T08:06:35;12.10;72.90
10538;DHT22;5317;49.048;8.468;2024-03-25T08:09:01;12.10;72.60
10538;DHT22;5317;49.048;8.468;2024-03-25T08:11:29;12.20;72.70
10538;DHT22;5317;49.048;8.468;2024-03-25T08:13:55;12.20;72.10
10538;DHT22;5317;49.048;8.468;2024-03-25T08:16:20;12.30;71.90
10538;DHT22;5317;49.048;8.468;2024-03-25T08:18:46;12.40;71.90
10538;DHT22;5317;49.048;8.468;2024-03-25T08:21:12;12.50;71.20
10538;DHT22;5317;49.048;8.468;2024-03-25T08:23:40;12.60;71.10
10538;DHT22;5317;49.048;8.468;2024-03-25T08:26:06;12.80;71.30
10538;DHT22;5317;49.048;8.468;2024-03-25T08:28:32;12.90;70.40
10538;DHT22;5317;49.048;8.468;2024-03-25T08:30:58;12.90;69.90
10538;DHT22;5317;49.048;8.468;2024-03-25T08:33:24;12.90;69.80
10538;DHT22;5317;49.048;8.468;2024-03-25T08:35:49;13.00;69.80
10538;DHT22;5317;49.048;8.468;2024-03-25T08:38:15;13.10;70.40
10538;DHT22;5317;49.048;8.468;2024-03-25T08:40:43;13.20;69.70
10538;DHT22;5317;49.048;8.468;2024-03-25T08:43:09;13.30;69.00
10538;DHT22;5317;49.048;8.468;2024-03-25T08:45:34;13.40;67.90
10538;DHT22;5317;49.048;8.468;2024-03-25T08:48:00;13.50;67.90
10538;DHT22;5317;49.048;8.468;2024-03-25T08:50:26;13.60;67.00
10538;DHT22;5317;49.048;8.468;2024-03-25T08:52:52;13.60;65.90
10538;DHT22;5317;49.048;8.468;2024-03-25T08:55:18;13.70;66.50
10538;DHT22;5317;49.048;8.468;2024-03-25T08:57:46;13.90;65.90
10538;DHT22;5317;49.048;8.468;2024-03-25T09:00:13;14.00;64.70
10538;DHT22;5317;49.048;8.468;2024-03-25T09:02:39;14.10;64.20
10538;DHT22;5317;49.048;8.468;2024-03-25T09:05:05;14.10;62.60
10538;DHT22;5317;49.048;8.468;2024-03-25T09:07:32;14.20;62.50
10538;DHT22;5317;49.048;8.468;2024-03-25T09:09:58;14.30;62.20
10538;DHT22;5317;49.048;8.468;2024-03-25T09:12:42;14.30;62.40
10538;DHT22;5317;49.048;8.468;2024-03-25T09:15:09;14.40;61.40
10538;DHT22;5317;49.048;8.468;2024-03-25T09:17:35;14.30;62.50
10538;DHT22;5317;49.048;8.468;2024-03-25T09:20:02;14.40;64.10
10538;DHT22;5317;49.048;8.468;2024-03-25T09:22:28;14.50;60.00
10538;DHT22;5317;49.048;8.468;2024-03-25T09:24:54;14.40;59.70
10538;DHT22;5317;49.048;8.468;2024-03-25T09:27:20;14.50;61.00
10538;DHT22;5317;49.048;8.468;2024-03-25T09:29:46;14.70;60.40
10538;DHT22;5317;49.048;8.468;2024-03-25T09:32:14;14.90;61.20
10538;DHT22;5317;49.048;8.468;2024-03-25T09:34:39;15.00;59.20
10538;DHT22;5317;49.048;8.468;2024-03-25T09:37:05;15.10;59.40
10538;DHT22;5317;49.048;8.468;2024-03-25T09:39:31;15.20;59.30
10538;DHT22;5317;49.048;8.468;2024-03-25T09:41:58;15.30;58.80
10538;DHT22;5317;49.048;8.468;2024-03-25T09:44:29;15.50;59.40
10538;DHT22;5317;49.048;8.468;2024-03-25T09:46:56;15.70;59.70
10538;DHT22;5317;49.048;8.468;2024-03-25T09:49:25;15.90;58.50
10538;DHT22;5317;49.048;8.468;2024-03-25T09:51:52;16.10;58.80
10538;DHT22;5317;49.048;8.468;2024-03-25T09:54:18;16.20;58.80
10538;DHT22;5317;49.048;8.468;2024-03-25T09:56:45;16.40;58.30
10538;DHT22;5317;49.048;8.468;2024-03-25T09:59:12;16.50;58.60
10538;DHT22;5317;49.048;8.468;2024-03-25T10:01:38;16.70;57.90
10538;DHT22;5317;49.048;8.468;2024-03-25T10:04:04;16.70;56.80
10538;DHT22;5317;49.048;8.468;2024-03-25T10:06:31;16.70;55.80
10538;DHT22;5317;49.048;8.468;2024-03-25T10:08:58;16.70;56.20
10538;DHT22;5317;49.048;8.468;2024-03-25T10:11:25;16.80;56.30
10538;DHT22;5317;49.048;8.468;2024-03-25T10:13:51;17.00;57.00
10538;DHT22;5317;49.048;8.468;2024-03-25T10:16:16;17.10;56.60
10538;DHT22;5317;49.048;8.468;2024-03-25T10:18:42;17.40;56.80
10538;DHT22;5317;49.048;8.468;2024-03-25T10:21:10;17.50;55.30
10538;DHT22;5317;49.048;8.468;2024-03-25T10:23:40;17.50;54.90
10538;DHT22;5317;49.048;8.468;2024-03-25T10:26:06;17.60;54.20
10538;DHT22;5317;49.048;8.468;2024-03-25T10:28:32;17.70;54.70
10538;DHT22;5317;49.048;8.468;2024-03-25T10:31:03;17.80;55.00
10538;DHT22;5317;49.048;8.468;2024-03-25T10:33:29;18.00;54.30
10538;DHT22;5317;49.048;8.468;2024-03-25T10:35:56;18.10;53.80
10538;DHT22;5317;49.048;8.468;2024-03-25T10:38:24;18.10;52.80
10538;DHT22;5317;49.048;8.468;2024-03-25T10:40:55;18.10;52.30
10538;DHT22;5317;49.048;8.468;2024-03-25T10:43:24;18.10;51.80
10538;DHT22;5317;49.048;8.468;2024-03-25T10:45:55;18.10;51.80
10538;DHT22;5317;49.048;8.468;2024-03-25T10:48:28;18.20;51.80
10538;DHT22;5317;49.048;8.468;2024-03-25T10:50:55;18.30;52.00
10538;DHT22;5317;49.048;8.468;2024-03-25T10:53:22;18.40;52.30
10538;DHT22;5317;49.048;8.468;2024-03-25T10:55:52;18.50;52.10
10538;DHT22;5317;49.048;8.468;2024-03-25T10:58:20;18.60;52.20
10538;DHT22;5317;49.048;8.468;2024-03-25T11:00:46;18.70;51.80
10538;DHT22;5317;49.048;8.468;2024-03-25T11:03:14;18.80;51.50
10538;DHT22;5317;49.048;8.468;2024-03-25T11:05:40;18.90;51.70
10538;DHT22;5317;49.048;8.468;2024-03-25T11:08:10;19.00;51.50
10538;DHT22;5317;49.048;8.468;2024-03-25T11:10:40;19.10;51.50
10538;DHT22;5317;49.048;8.468;2024-03-25T11:13:11;19.20;51.50
10538;DHT22;5317;49.048;8.468;2024-03-25T11:15:40;19.30;50.00
10538;DHT22;5317;49.048;8.468;2024-03-25T11:18:11;19.40;50.10
10538;DHT22;5317;49.048;8.468;2024-03-25T11:20:37;19.50;49.80
10538;DHT22;5317;49.048;8.468;2024-03-25T11:23:08;19.70;50.00
10538;DHT22;5317;49.048;8.468;2024-03-25T11:25:34;19.80;49.50
10538;DHT22;5317;49.048;8.468;2024-03-25T11:28:01;19.90;49.70
10538;DHT22;5317;49.048;8.468;2024-03-25T11:30:28;20.00;48.80
10538;DHT22;5317;49.048;8.468;2024-03-25T11:32:55;20.10;48.80
10538;DHT22;5317;49.048;8.468;2024-03-25T11:35:21;20.10;47.60
10538;DHT22;5317;49.048;8.468;2024-03-25T11:37:47;20.10;45.80
10538;DHT22;5317;49.048;8.468;2024-03-25T11:40:14;20.20;47.10
10538;DHT22;5317;49.048;8.468;2024-03-25T11:42:40;20.20;48.00
10538;DHT22;5317;49.048;8.468;2024-03-25T11:45:07;20.20;47.10
10538;DHT22;5317;49.048;8.468;2024-03-25T11:47:35;20.30;47.10
10538;DHT22;5317;49.048;8.468;2024-03-25T11:50:07;20.40;47.30
10538;DHT22;5317;49.048;8.468;2024-03-25T11:52:33;20.40;45.70
10538;DHT22;5317;49.048;8.468;2024-03-25T11:54:59;20.50;46.80
10538;DHT22;5317;49.048;8.468;2024-03-25T11:57:25;20.50;46.20
10538;DHT22;5317;49.048;8.468;2024-03-25T11:59:51;20.50;45.80
10538;DHT22;5317;49.048;8.468;2024-03-25T12:02:18;20.50;45.70
10538;DHT22;5317;49.048;8.468;2024-03-25T12:04:47;20.70;46.00
10538;DHT22;5317;49.048;8.468;2024-03-25T12:07:13;20.80;45.40
10538;DHT22;5317;49.048;8.468;2024-03-25T12:09:39;20.90;45.60
10538;DHT22;5317;49.048;8.468;2024-03-25T12:12:24;21.00;45.60
10538;DHT22;5317;49.048;8.468;2024-03-25T12:14:50;21.10;45.70
10538;DHT22;5317;49.048;8.468;2024-03-25T12:17:17;21.30;45.00
10538;DHT22;5317;49.048;8.468;2024-03-25T12:19:44;21.40;44.20
10538;DHT22;5317;49.048;8.468;2024-03-25T12:22:10;21.40;43.80
10538;DHT22;5317;49.048;8.468;2024-03-25T12:24:37;21.30;42.70
10538;DHT22;5317;49.048;8.468;2024-03-25T12:27:04;21.30;43.70
10538;DHT22;5317;49.048;8.468;2024-03-25T12:29:30;21.50;43.50
10538;DHT22;5317;49.048;8.468;2024-03-25T12:31:57;21.50;43.70
10538;DHT22;5317;49.048;8.468;2024-03-25T12:34:25;21.70;43.60
10538;DHT22;5317;49.048;8.468;2024-03-25T12:37:00;21.90;44.10
10538;DHT22;5317;49.048;8.468;2024-03-25T12:39:26;22.00;42.60
10538;DHT22;5317;49.048;8.468;2024-03-25T12:41:53;22.10;43.30
10538;DHT22;5317;49.048;8.468;2024-03-25T12:44:19;22.00;42.40
10538;DHT22;5317;49.048;8.468;2024-03-25T12:46:53;21.90;42.00
10538;DHT22;5317;49.048;8.468;2024-03-25T12:49:19;21.80;41.90
10538;DHT22;5317;49.048;8.468;2024-03-25T12:51:45;21.80;41.90
10538;DHT22;5317;49.048;8.468;2024-03-25T12:54:12;21.80;42.50
10538;DHT22;5317;49.048;8.468;2024-03-25T12:56:38;21.90;42.00
10538;DHT22;5317;49.048;8.468;2024-03-25T12:59:04;21.90;41.80
10538;DHT22;5317;49.048;8.468;2024-03-25T13:01:30;21.90;41.80
10538;DHT22;5317;49.048;8.468;2024-03-25T13:03:56;22.00;42.40
10538;DHT22;5317;49.048;8.468;2024-03-25T13:06:22;22.20;42.50
10538;DHT22;5317;49.048;8.468;2024-03-25T13:08:48;22.20;41.80
10538;DHT22;5317;49.048;8.468;2024-03-25T13:11:15;22.20;40.80
10538;DHT22;5317;49.048;8.468;2024-03-25T13:13:41;22.10;39.90
10538;DHT22;5317;49.048;8.468;2024-03-25T13:16:07;22.00;40.20
10538;DHT22;5317;49.048;8.468;2024-03-25T13:18:33;22.00;41.50
10538;DHT22;5317;49.048;8.468;2024-03-25T13:20:59;22.10;41.10
10538;DHT22;5317;49.048;8.468;2024-03-25T13:23:25;21.90;40.60
10538;DHT22;5317;49.048;8.468;2024-03-25T13:25:51;21.90;40.60
10538;DHT22;5317;49.048;8.468;2024-03-25T13:28:18;21.90;40.90
10538;DHT22;5317;49.048;8.468;2024-03-25T13:30:44;22.10;40.50
10538;DHT22;5317;49.048;8.468;2024-03-25T13:33:10;22.20;40.60
10538;DHT22;5317;49.048;8.468;2024-03-25T13:35:36;22.10;41.00
10538;DHT22;5317;49.048;8.468;2024-03-25T13:38:02;22.20;40.80
10538;DHT22;5317;49.048;8.468;2024-03-25T13:40:28;22.20;40.50
10538;DHT22;5317;49.048;8.468;2024-03-25T13:42:54;22.30;40.30
10538;DHT22;5317;49.048;8.468;2024-03-25T13:45:21;22.40;40.90
10538;DHT22;5317;49.048;8.468;2024-03-25T13:47:47;22.40;40.40
10538;DHT22;5317;49.048;8.468;2024-03-25T13:50:13;22.40;39.00
10538;DHT22;5317;49.048;8.468;2024-03-25T13:52:39;22.30;39.10
10538;DHT22;5317;49.048;8.468;2024-03-25T13:55:05;22.30;40.00
10538;DHT22;5317;49.048;8.468;2024-03-25T13:57:31;22.40;39.80
10538;DHT22;5317;49.048;8.468;2024-03-25T13:59:57;22.50;38.30
10538;DHT22;5317;49.048;8.468;2024-03-25T14:02:24;22.60;39.10
10538;DHT22;5317;49.048;8.468;2024-03-25T14:04:51;22.70;39.00
10538;DHT22;5317;49.048;8.468;2024-03-25T14:07:17;22.90;39.30
10538;DHT22;5317;49.048;8.468;2024-03-25T14:09:43;23.00;38.90
10538;DHT22;5317;49.048;8.468;2024-03-25T14:12:09;23.20;38.30
10538;DHT22;5317;49.048;8.468;2024-03-25T14:14:35;23.20;37.80
10538;DHT22;5317;49.048;8.468;2024-03-25T14:17:01;23.40;38.30
10538;DHT22;5317;49.048;8.468;2024-03-25T14:19:28;23.50;38.10
10538;DHT22;5317;49.048;8.468;2024-03-25T14:21:54;23.80;38.00
10538;DHT22;5317;49.048;8.468;2024-03-25T14:24:20;24.10;38.40
10538;DHT22;5317;49.048;8.468;2024-03-25T14:26:46;24.30;37.80
10538;DHT22;5317;49.048;8.468;2024-03-25T14:29:12;24.50;37.40
10538;DHT22;5317;49.048;8.468;2024-03-25T14:31:38;24.60;37.80
10538;DHT22;5317;49.048;8.468;2024-03-25T14:34:04;24.80;37.70
10538;DHT22;5317;49.048;8.468;2024-03-25T14:36:31;25.10;37.80
10538;DHT22;5317;49.048;8.468;2024-03-25T14:38:57;25.60;37.40
10538;DHT22;5317;49.048;8.468;2024-03-25T14:41:23;26.00;37.00
10538;DHT22;5317;49.048;8.468;2024-03-25T14:43:49;26.60;36.40
10538;DHT22;5317;49.048;8.468;2024-03-25T14:46:15;27.60;35.10
10538;DHT22;5317;49.048;8.468;2024-03-25T14:48:41;29.30;34.00
10538;DHT22;5317;49.048;8.468;2024-03-25T14:51:06;31.60;32.40
10538;DHT22;5317;49.048;8.468;2024-03-25T14:53:34;33.60;30.00
10538;DHT22;5317;49.048;8.468;2024-03-25T14:56:00;35.50;28.40
10538;DHT22;5317;49.048;8.468;2024-03-25T14:58:26;37.30;27.30
10538;DHT22;5317;49.048;8.468;2024-03-25T15:00:52;38.70;26.30
10538;DHT22;5317;49.048;8.468;2024-03-25T15:03:18;40.00;25.40
10538;DHT22;5317;49.048;8.468;2024-03-25T15:05:43;40.80;24.80
10538;DHT22;5317;49.048;8.468;2024-03-25T15:08:09;41.40;23.60
10538;DHT22;5317;49.048;8.468;2024-03-25T15:10:37;41.80;22.90
10538;DHT22;5317;49.048;8.468;2024-03-25T15:13:03;42.00;22.50
10538;DHT22;5317;49.048;8.468;2024-03-25T15:15:29;41.80;22.60
10538;DHT22;5317;49.048;8.468;2024-03-25T15:17:55;41.70;22.20
10538;DHT22;5317;49.048;8.468;2024-03-25T15:20:21;41.30;22.20
10538;DHT22;5317;49.048;8.468;2024-03-25T15:22:47;41.00;22.30
10538;DHT22;5317;49.048;8.468;2024-03-25T15:25:13;40.20;22.10
10538;DHT22;5317;49.048;8.468;2024-03-25T15:27:40;38.70;22.40
10538;DHT22;5317;49.048;8.468;2024-03-25T15:30:07;36.70;22.20
10538;DHT22;5317;49.048;8.468;2024-03-25T15:32:33;34.60;23.40
10538;DHT22;5317;49.048;8.468;2024-03-25T15:34:59;32.80;24.20
10538;DHT22;5317;49.048;8.468;2024-03-25T15:37:25;31.40;25.80
10538;DHT22;5317;49.048;8.468;2024-03-25T15:39:51;30.10;26.00
10538;DHT22;5317;49.048;8.468;2024-03-25T15:42:17;29.10;26.60
10538;DHT22;5317;49.048;8.468;2024-03-25T15:44:45;28.40;27.80